createdAt,value
2019-02-22T00:00:31.004Z,32.73
2019-02-22T00:01:35.384Z,31.02
2019-02-22T00:02:28.864Z,31.90
2019-02-22T00:03:04.584Z,24.00
2019-02-22T00:03:39.931Z,27.77
2019-02-22T00:04:15.291Z,23.32
2019-02-22T00:04:50.704Z,27.67
2019-02-22T00:05:26.168Z,31.12
2019-02-22T00:06:01.544Z,27.95
2019-02-22T00:06:37.065Z,30.68
2019-02-22T00:07:12.852Z,27.73
2019-02-22T00:07:48.272Z,28.83
2019-02-22T00:08:23.887Z,29.35
2019-02-22T00:08:59.305Z,30.48
2019-02-22T00:09:34.864Z,27.95
2019-02-22T00:10:10.832Z,27.93
2019-02-22T00:10:46.435Z,30.43
2019-02-22T00:11:21.847Z,28.10
2019-02-22T00:11:57.311Z,29.15
2019-02-22T00:12:32.754Z,31.87
2019-02-22T00:13:08.293Z,27.07
2019-02-22T00:13:43.593Z,29.05
2019-02-22T00:14:19.114Z,30.92
2019-02-22T00:14:54.508Z,31.68
2019-02-22T00:15:30.128Z,31.20
2019-02-22T00:16:05.614Z,29.92
2019-02-22T00:16:41.027Z,31.80
2019-02-22T00:17:16.368Z,32.05
2019-02-22T00:17:51.664Z,36.63
2019-02-22T00:18:27.147Z,33.70
2019-02-22T00:19:02.564Z,31.57
2019-02-22T00:19:37.884Z,34.43
2019-02-22T00:20:13.405Z,30.45
2019-02-22T00:20:48.903Z,29.98
2019-02-22T00:21:24.328Z,28.40
2019-02-22T00:21:59.812Z,28.02
2019-02-22T00:22:35.291Z,30.82
2019-02-22T00:23:10.771Z,28.00
2019-02-22T00:23:46.085Z,29.02
2019-02-22T00:24:21.584Z,28.17
2019-02-22T00:24:56.886Z,28.87
2019-02-22T00:25:32.304Z,30.57
2019-02-22T00:26:07.709Z,29.25
2019-02-22T00:26:43.266Z,30.60
2019-02-22T00:27:18.744Z,27.35
2019-02-22T00:27:54.219Z,26.95
2019-02-22T00:28:29.686Z,33.18
2019-02-22T00:29:04.968Z,29.27
2019-02-22T00:29:40.425Z,28.00
2019-02-22T00:30:15.856Z,30.82
2019-02-22T00:30:51.188Z,30.62
2019-02-22T00:31:26.528Z,28.55
2019-02-22T00:32:01.990Z,28.98
2019-02-22T00:32:37.337Z,32.08
2019-02-22T00:33:12.674Z,31.50
2019-02-22T00:33:48.214Z,30.75
2019-02-22T00:34:23.843Z,29.85
2019-02-22T00:34:59.335Z,26.93
2019-02-22T00:35:34.786Z,29.98
2019-02-22T00:36:10.144Z,29.35
2019-02-22T00:36:45.714Z,26.93
2019-02-22T00:37:21.131Z,30.97
2019-02-22T00:37:56.426Z,28.27
2019-02-22T00:38:31.766Z,30.37
2019-02-22T00:39:07.306Z,29.45
2019-02-22T00:39:42.785Z,22.48
2019-02-22T00:40:18.186Z,27.67
2019-02-22T00:40:53.534Z,29.05
2019-02-22T00:41:28.927Z,30.15
2019-02-22T00:42:04.264Z,28.75
2019-02-22T00:42:39.613Z,28.15
2019-02-22T00:43:14.884Z,26.52
2019-02-22T00:43:50.224Z,27.67
2019-02-22T00:44:25.686Z,29.02
2019-02-22T00:45:01.124Z,29.87
2019-02-22T00:45:36.627Z,30.70
2019-02-22T00:46:11.928Z,33.33
2019-02-22T00:46:47.488Z,26.45
2019-02-22T00:47:23.047Z,26.05
2019-02-22T00:47:58.346Z,32.20
2019-02-22T00:48:33.626Z,29.02
2019-02-22T00:49:09.125Z,26.27
2019-02-22T00:49:44.487Z,30.32
2019-02-22T00:50:19.828Z,25.82
2019-02-22T00:50:55.323Z,30.48
2019-02-22T00:51:30.712Z,26.82
2019-02-22T00:52:06.245Z,30.62
2019-02-22T00:52:41.984Z,29.15
2019-02-22T00:53:17.316Z,29.67
2019-02-22T00:53:52.624Z,28.07
2019-02-22T00:54:28.184Z,28.32
2019-02-22T00:55:03.485Z,26.52
2019-02-22T00:55:38.931Z,29.37
2019-02-22T00:56:14.284Z,28.80
2019-02-22T00:56:49.680Z,29.98
2019-02-22T00:57:25.176Z,28.00
2019-02-22T00:58:00.563Z,31.40
2019-02-22T00:58:35.864Z,27.42
2019-02-22T00:59:11.182Z,26.15
2019-02-22T00:59:46.544Z,28.25
2019-02-22T01:00:21.845Z,28.15
2019-02-22T01:00:57.304Z,27.20
2019-02-22T01:01:33.046Z,28.55
2019-02-22T01:02:08.466Z,27.73
2019-02-22T01:02:43.965Z,27.60
2019-02-22T01:03:19.226Z,28.25
2019-02-22T01:03:54.549Z,28.27
2019-02-22T01:04:30.067Z,32.33
2019-02-22T01:05:05.725Z,28.52
2019-02-22T01:05:41.066Z,29.07
2019-02-22T01:06:16.443Z,28.00
2019-02-22T01:06:52.383Z,24.82
2019-02-22T01:07:27.643Z,25.57
2019-02-22T01:08:03.100Z,27.20
2019-02-22T01:08:38.432Z,29.48
2019-02-22T01:09:13.945Z,28.75
2019-02-22T01:09:49.243Z,27.65
2019-02-22T01:10:31.186Z,29.18
2019-02-22T01:11:02.254Z,28.15
2019-02-22T01:11:37.525Z,24.23
2019-02-22T01:12:12.903Z,26.95
2019-02-22T01:12:48.456Z,25.48
2019-02-22T01:13:24.027Z,23.22
2019-02-22T01:13:59.501Z,25.52
2019-02-22T01:14:34.886Z,27.32
2019-02-22T01:15:10.306Z,25.72
2019-02-22T01:15:45.644Z,25.48
2019-02-22T01:16:21.164Z,22.60
2019-02-22T01:16:57.369Z,24.05
2019-02-22T01:17:33.024Z,26.33
2019-02-22T01:18:08.487Z,24.35
2019-02-22T01:18:43.765Z,24.50
2019-02-22T01:19:19.032Z,21.93
2019-02-22T01:19:54.368Z,23.75
2019-02-22T01:20:29.826Z,24.10
2019-02-22T01:21:05.136Z,24.87
2019-02-22T01:21:40.445Z,25.97
2019-02-22T01:22:15.872Z,24.15
2019-02-22T01:22:51.264Z,24.72
2019-02-22T01:23:26.624Z,24.23
2019-02-22T01:24:02.026Z,25.17
2019-02-22T01:24:37.388Z,23.47
2019-02-22T01:25:12.932Z,23.30
2019-02-22T01:25:48.504Z,23.42
2019-02-22T01:26:23.806Z,25.30
2019-02-22T01:26:59.104Z,25.02
2019-02-22T01:27:34.672Z,21.42
2019-02-22T01:28:10.204Z,23.27
2019-02-22T01:28:45.724Z,21.60
2019-02-22T01:29:21.033Z,25.37
2019-02-22T01:29:56.714Z,24.67
2019-02-22T01:30:32.158Z,27.42
2019-02-22T01:31:07.532Z,24.18
2019-02-22T01:31:42.932Z,26.90
2019-02-22T01:32:18.193Z,25.55
2019-02-22T01:32:53.584Z,24.98
2019-02-22T01:33:28.965Z,25.77
2019-02-22T01:34:04.572Z,24.82
2019-02-22T01:34:39.804Z,24.72
2019-02-22T01:35:15.104Z,24.12
2019-02-22T01:35:50.564Z,26.85
2019-02-22T01:36:25.897Z,26.52
2019-02-22T01:37:01.305Z,26.87
2019-02-22T01:37:36.764Z,23.50
2019-02-22T01:38:12.093Z,24.70
2019-02-22T01:38:47.745Z,22.58
2019-02-22T01:39:23.086Z,23.27
2019-02-22T01:39:58.493Z,22.50
2019-02-22T01:40:43.111Z,21.90
2019-02-22T01:41:11.186Z,22.10
2019-02-22T01:41:46.543Z,23.30
2019-02-22T01:42:22.048Z,24.95
2019-02-22T01:42:57.569Z,24.20
2019-02-22T01:43:33.543Z,22.32
2019-02-22T01:44:19.725Z,23.77
2019-02-22T01:44:55.124Z,21.95
2019-02-22T01:45:30.605Z,24.75
2019-02-22T01:46:05.904Z,22.32
2019-02-22T01:46:41.324Z,21.75
2019-02-22T01:47:16.644Z,22.05
2019-02-22T01:47:52.012Z,22.50
2019-02-22T01:48:27.324Z,23.80
2019-02-22T01:49:02.866Z,21.30
2019-02-22T01:49:38.184Z,21.30
2019-02-22T01:50:21.411Z,22.40
2019-02-22T01:50:56.772Z,21.05
2019-02-22T01:51:32.128Z,15.93
2019-02-22T01:52:07.644Z,21.87
2019-02-22T01:52:43.452Z,24.92
2019-02-22T01:53:18.937Z,22.20
2019-02-22T01:53:54.275Z,25.12
2019-02-22T01:54:29.564Z,21.00
2019-02-22T01:55:05.153Z,19.95
2019-02-22T01:55:40.626Z,21.02
2019-02-22T01:56:15.924Z,22.93
2019-02-22T01:56:51.369Z,20.05
2019-02-22T01:57:26.624Z,21.15
2019-02-22T01:58:02.110Z,20.12
2019-02-22T01:58:48.046Z,20.57
2019-02-22T01:59:14.444Z,20.62
2019-02-22T01:59:49.825Z,20.62
2019-02-22T02:00:25.344Z,20.43
2019-02-22T02:01:00.705Z,20.30
2019-02-22T02:01:36.545Z,20.02
2019-02-22T02:02:11.946Z,19.60
2019-02-22T02:02:47.243Z,19.98
2019-02-22T02:03:22.586Z,19.95
2019-02-22T02:03:58.065Z,21.90
2019-02-22T02:04:33.306Z,19.32
2019-02-22T02:05:08.674Z,19.35
2019-02-22T02:05:44.205Z,19.92
2019-02-22T02:06:20.046Z,21.27
2019-02-22T02:06:55.563Z,17.32
2019-02-22T02:07:30.924Z,17.45
2019-02-22T02:08:06.485Z,19.25
2019-02-22T02:08:41.984Z,19.25
2019-02-22T02:09:17.604Z,17.30
2019-02-22T02:09:53.044Z,18.50
2019-02-22T02:10:28.366Z,17.98
2019-02-22T02:11:03.851Z,17.77
2019-02-22T02:11:39.086Z,18.10
2019-02-22T02:12:14.466Z,19.98
2019-02-22T02:12:49.746Z,20.45
2019-02-22T02:13:25.226Z,19.27
2019-02-22T02:14:00.569Z,17.73
2019-02-22T02:14:36.065Z,17.60
2019-02-22T02:15:11.706Z,17.00
2019-02-22T02:15:47.229Z,19.73
2019-02-22T02:16:22.794Z,20.20
2019-02-22T02:16:58.146Z,19.27
2019-02-22T02:17:33.647Z,19.35
2019-02-22T02:18:08.928Z,18.15
2019-02-22T02:18:44.387Z,17.02
2019-02-22T02:19:19.826Z,17.05
2019-02-22T02:19:55.256Z,17.07
2019-02-22T02:20:31.141Z,18.20
2019-02-22T02:21:06.525Z,16.75
2019-02-22T02:21:41.844Z,19.02
2019-02-22T02:22:17.186Z,18.20
2019-02-22T02:22:52.746Z,18.48
2019-02-22T02:23:28.046Z,19.10
2019-02-22T02:24:03.587Z,16.90
2019-02-22T02:24:38.904Z,16.97
2019-02-22T02:25:14.384Z,15.58
2019-02-22T02:25:49.792Z,17.15
2019-02-22T02:26:25.204Z,17.35
2019-02-22T02:27:00.732Z,17.57
2019-02-22T02:27:36.193Z,17.57
2019-02-22T02:28:11.574Z,16.77
2019-02-22T02:28:47.148Z,16.95
2019-02-22T02:29:22.443Z,16.55
2019-02-22T02:29:57.825Z,16.00
2019-02-22T02:30:33.665Z,18.52
2019-02-22T02:31:09.024Z,15.88
2019-02-22T02:31:44.473Z,15.85
2019-02-22T02:32:19.845Z,16.45
2019-02-22T02:32:55.232Z,13.83
2019-02-22T02:33:30.887Z,15.15
2019-02-22T02:34:06.308Z,16.02
2019-02-22T02:34:41.604Z,16.25
2019-02-22T02:35:17.044Z,14.28
2019-02-22T02:35:52.505Z,16.45
2019-02-22T02:36:27.897Z,16.17
2019-02-22T02:37:03.333Z,15.63
2019-02-22T02:37:38.792Z,16.07
2019-02-22T02:38:14.224Z,15.72
2019-02-22T02:38:49.556Z,15.28
2019-02-22T02:39:25.121Z,16.40
2019-02-22T02:40:00.525Z,16.45
2019-02-22T02:40:35.852Z,17.02
2019-02-22T02:41:11.743Z,16.45
2019-02-22T02:41:47.326Z,15.45
2019-02-22T02:42:22.673Z,15.55
2019-02-22T02:42:58.064Z,16.35
2019-02-22T02:43:33.506Z,16.05
2019-02-22T02:44:09.063Z,15.05
2019-02-22T02:44:44.457Z,15.03
2019-02-22T02:45:19.770Z,14.38
2019-02-22T02:45:55.625Z,16.25
2019-02-22T02:46:30.884Z,14.73
2019-02-22T02:47:06.608Z,16.80
2019-02-22T02:47:42.067Z,17.57
2019-02-22T02:48:17.572Z,13.70
2019-02-22T02:48:53.039Z,13.28
2019-02-22T02:49:28.557Z,13.03
2019-02-22T02:50:03.991Z,14.18
2019-02-22T02:50:39.304Z,14.05
2019-02-22T02:51:14.726Z,14.53
2019-02-22T02:51:50.066Z,13.85
2019-02-22T02:52:25.607Z,15.40
2019-02-22T02:53:01.027Z,14.63
2019-02-22T02:53:37.045Z,15.63
2019-02-22T02:54:12.423Z,13.45
2019-02-22T02:54:47.726Z,15.20
2019-02-22T02:55:33.937Z,13.90
2019-02-22T02:56:09.252Z,13.45
2019-02-22T02:56:46.265Z,17.05
2019-02-22T02:57:21.653Z,14.45
2019-02-22T02:57:57.170Z,14.05
2019-02-22T02:58:32.606Z,14.85
2019-02-22T02:59:08.080Z,13.05
2019-02-22T02:59:43.569Z,14.65
2019-02-22T03:00:18.920Z,13.43
2019-02-22T03:00:54.417Z,13.53
2019-02-22T03:01:29.854Z,14.38
2019-02-22T03:02:07.986Z,13.03
2019-02-22T03:02:43.388Z,13.72
2019-02-22T03:03:18.866Z,14.68
2019-02-22T03:03:54.458Z,12.95
2019-02-22T03:04:29.864Z,12.73
2019-02-22T03:05:05.284Z,12.55
2019-02-22T03:05:55.767Z,14.83
2019-02-22T03:06:39.564Z,11.45
2019-02-22T03:07:33.967Z,14.03
2019-02-22T03:08:09.408Z,10.98
2019-02-22T03:08:44.804Z,12.28
2019-02-22T03:09:20.164Z,12.10
2019-02-22T03:09:55.533Z,13.48
2019-02-22T03:10:31.570Z,12.40
2019-02-22T03:11:06.965Z,12.85
2019-02-22T03:11:42.384Z,11.15
2019-02-22T03:12:17.824Z,12.45
2019-02-22T03:12:53.316Z,12.35
2019-02-22T03:13:28.688Z,12.70
2019-02-22T03:14:04.705Z,13.25
2019-02-22T03:14:40.161Z,10.98
2019-02-22T03:15:16.768Z,10.72
2019-02-22T03:15:52.048Z,13.22
2019-02-22T03:16:27.373Z,12.03
2019-02-22T03:17:02.694Z,12.43
2019-02-22T03:17:37.986Z,10.35
2019-02-22T03:18:13.407Z,12.75
2019-02-22T03:18:48.667Z,11.63
2019-02-22T03:19:24.094Z,12.35
2019-02-22T03:19:59.428Z,12.85
2019-02-22T03:20:35.007Z,11.38
2019-02-22T03:21:10.303Z,11.35
2019-02-22T03:21:45.611Z,12.13
2019-02-22T03:22:20.844Z,10.43
2019-02-22T03:22:56.224Z,10.15
2019-02-22T03:23:31.580Z,11.15
2019-02-22T03:24:06.945Z,10.23
2019-02-22T03:24:42.504Z,9.95
2019-02-22T03:25:17.826Z,10.75
2019-02-22T03:25:53.244Z,9.55
2019-02-22T03:26:28.568Z,9.68
2019-02-22T03:27:03.868Z,10.82
2019-02-22T03:27:39.236Z,10.85
2019-02-22T03:28:14.551Z,9.93
2019-02-22T03:28:50.046Z,8.95
2019-02-22T03:29:25.571Z,9.10
2019-02-22T03:30:01.126Z,6.62
2019-02-22T03:30:36.574Z,8.48
2019-02-22T03:31:12.089Z,8.48
2019-02-22T03:31:47.650Z,8.73
2019-02-22T03:32:23.149Z,8.83
2019-02-22T03:32:58.636Z,8.33
2019-02-22T03:33:34.212Z,9.40
2019-02-22T03:34:09.573Z,10.00
2019-02-22T03:34:45.206Z,10.25
2019-02-22T03:35:20.532Z,9.68
2019-02-22T03:35:55.901Z,8.85
2019-02-22T03:36:31.309Z,7.72
2019-02-22T03:37:06.768Z,8.13
2019-02-22T03:37:42.167Z,8.33
2019-02-22T03:38:17.492Z,8.48
2019-02-22T03:38:52.812Z,6.92
2019-02-22T03:39:28.240Z,7.60
2019-02-22T03:40:03.744Z,7.25
2019-02-22T03:40:39.447Z,6.97
2019-02-22T03:41:14.983Z,6.70
2019-02-22T03:41:50.304Z,6.35
2019-02-22T03:42:25.720Z,5.75
2019-02-22T03:43:01.145Z,5.30
2019-02-22T03:43:36.468Z,6.45
2019-02-22T03:44:12.045Z,5.72
2019-02-22T03:44:47.583Z,5.45
2019-02-22T03:45:23.158Z,5.60
2019-02-22T03:45:58.692Z,5.35
2019-02-22T03:46:34.007Z,5.97
2019-02-22T03:47:09.365Z,5.05
2019-02-22T03:47:44.668Z,5.42
2019-02-22T03:48:20.132Z,5.37
2019-02-22T03:48:55.531Z,4.75
2019-02-22T03:49:30.953Z,4.55
2019-02-22T03:50:06.787Z,5.55
2019-02-22T03:50:42.324Z,4.42
2019-02-22T03:51:17.804Z,4.75
2019-02-22T03:51:53.331Z,4.92
2019-02-22T03:52:38.413Z,5.62
2019-02-22T03:53:20.507Z,5.55
2019-02-22T03:54:01.628Z,5.58
2019-02-22T03:54:37.064Z,5.12
2019-02-22T03:55:12.344Z,3.87
2019-02-22T03:55:47.785Z,4.08
2019-02-22T03:56:23.333Z,3.52
2019-02-22T03:56:58.632Z,3.37
2019-02-22T03:57:34.084Z,3.40
2019-02-22T03:58:09.687Z,2.50
2019-02-22T03:58:45.053Z,2.77
2019-02-22T03:59:20.591Z,2.80
2019-02-22T03:59:56.125Z,2.47
2019-02-22T04:00:31.673Z,4.30
2019-02-22T04:01:06.984Z,3.98
2019-02-22T04:01:42.592Z,3.37
2019-02-22T04:02:17.947Z,3.60
2019-02-22T04:02:53.386Z,3.87
2019-02-22T04:03:28.934Z,3.25
2019-02-22T04:04:04.594Z,3.05
2019-02-22T04:04:40.004Z,3.67
2019-02-22T04:05:15.510Z,3.08
2019-02-22T04:05:51.082Z,3.10
2019-02-22T04:06:26.604Z,3.12
2019-02-22T04:07:02.088Z,2.92
2019-02-22T04:07:37.494Z,2.58
2019-02-22T04:08:12.992Z,3.25
2019-02-22T04:08:48.409Z,2.92
2019-02-22T04:09:23.805Z,3.05
2019-02-22T04:09:59.265Z,3.17
2019-02-22T04:10:34.625Z,3.30
2019-02-22T04:11:09.310Z,3.52
2019-02-22T04:11:46.265Z,3.55
2019-02-22T04:12:22.092Z,2.95
2019-02-22T04:12:57.305Z,3.12
2019-02-22T04:13:32.844Z,3.83
2019-02-22T04:14:08.405Z,3.83
2019-02-22T04:14:44.391Z,3.98
2019-02-22T04:15:19.887Z,3.33
2019-02-22T04:15:55.186Z,3.52
2019-02-22T04:16:30.572Z,4.05
2019-02-22T04:17:05.984Z,3.40
2019-02-22T04:17:41.329Z,3.62
2019-02-22T04:18:16.809Z,3.52
2019-02-22T04:18:52.177Z,3.17
2019-02-22T04:19:27.594Z,2.98
2019-02-22T04:20:02.926Z,2.92
2019-02-22T04:21:22.206Z,3.05
2019-02-22T04:21:59.034Z,2.80
2019-02-22T04:22:34.368Z,2.35
2019-02-22T04:23:09.704Z,3.52
2019-02-22T04:23:45.131Z,3.22
2019-02-22T04:24:20.465Z,3.50
2019-02-22T04:24:55.823Z,3.50
2019-02-22T04:25:31.252Z,3.85
2019-02-22T04:26:06.748Z,3.80
2019-02-22T04:26:42.149Z,3.65
2019-02-22T04:27:17.591Z,3.87
2019-02-22T04:27:53.028Z,3.75
2019-02-22T04:28:28.220Z,3.10
2019-02-22T04:29:03.567Z,3.87
2019-02-22T04:29:38.949Z,3.77
2019-02-22T04:30:14.327Z,3.42
2019-02-22T04:30:49.887Z,4.05
2019-02-22T04:31:25.564Z,3.83
2019-02-22T04:32:00.905Z,3.20
2019-02-22T04:32:36.468Z,3.72
2019-02-22T04:33:12.209Z,3.98
2019-02-22T04:33:47.564Z,4.30
2019-02-22T04:34:22.985Z,3.70
2019-02-22T04:34:58.415Z,3.33
2019-02-22T04:35:33.753Z,4.15
2019-02-22T04:36:09.105Z,4.15
2019-02-22T04:36:44.512Z,4.00
2019-02-22T04:37:19.912Z,3.60
2019-02-22T04:37:55.231Z,3.92
2019-02-22T04:38:30.780Z,4.65
2019-02-22T04:39:07.248Z,4.00
2019-02-22T04:39:42.747Z,4.05
2019-02-22T04:40:18.207Z,3.70
2019-02-22T04:40:53.676Z,5.00
2019-02-22T04:41:29.184Z,5.30
2019-02-22T04:42:04.706Z,4.92
2019-02-22T04:42:40.012Z,5.42
2019-02-22T04:43:15.368Z,5.03
2019-02-22T04:43:50.803Z,5.28
2019-02-22T04:44:26.096Z,5.78
2019-02-22T04:45:01.531Z,5.70
2019-02-22T04:45:36.852Z,6.05
2019-02-22T04:46:12.191Z,4.95
2019-02-22T04:46:47.707Z,5.33
2019-02-22T04:47:23.251Z,5.72
2019-02-22T04:47:58.591Z,4.70
2019-02-22T04:48:34.032Z,4.65
2019-02-22T04:49:09.409Z,4.92
2019-02-22T04:49:45.005Z,5.67
2019-02-22T04:50:20.525Z,5.97
2019-02-22T04:50:55.985Z,6.50
2019-02-22T04:51:31.365Z,5.03
2019-02-22T04:52:06.785Z,4.17
2019-02-22T04:52:42.652Z,3.33
2019-02-22T04:53:18.475Z,3.25
2019-02-22T04:53:54.157Z,3.02
2019-02-22T04:54:29.695Z,2.90
2019-02-22T04:55:05.295Z,2.90
2019-02-22T04:55:40.955Z,1.82
2019-02-22T04:56:16.436Z,2.30
2019-02-22T04:56:52.230Z,2.08
2019-02-22T04:57:27.924Z,2.20
2019-02-22T04:58:03.739Z,2.10
2019-02-22T04:58:39.508Z,1.77
2019-02-22T04:59:15.131Z,1.98
2019-02-22T04:59:50.654Z,1.92
2019-02-22T05:00:26.453Z,2.33
2019-02-22T05:01:02.166Z,2.00
2019-02-22T05:01:37.936Z,1.90
2019-02-22T05:02:13.518Z,2.55
2019-02-22T05:02:49.334Z,2.40
2019-02-22T05:03:24.999Z,2.98
2019-02-22T05:04:00.725Z,2.92
2019-02-22T05:04:36.436Z,3.60
2019-02-22T05:05:12.096Z,4.15
2019-02-22T05:05:47.894Z,4.15
2019-02-22T05:06:23.568Z,4.00
2019-02-22T05:06:59.287Z,3.92
2019-02-22T05:07:35.580Z,3.22
2019-02-22T05:08:11.300Z,3.98
2019-02-22T05:08:47.204Z,3.10
2019-02-22T05:09:23.120Z,2.60
2019-02-22T05:09:58.922Z,2.98
2019-02-22T05:10:34.848Z,2.60
2019-02-22T05:11:10.489Z,2.35
2019-02-22T05:11:46.048Z,1.98
2019-02-22T05:12:21.940Z,1.50
2019-02-22T05:12:57.505Z,1.40
2019-02-22T05:13:33.195Z,1.80
2019-02-22T05:14:09.102Z,3.08
2019-02-22T05:14:44.878Z,3.67
2019-02-22T05:15:20.439Z,2.30
2019-02-22T05:15:56.183Z,1.70
2019-02-22T05:16:31.588Z,1.87
2019-02-22T05:17:07.054Z,1.70
2019-02-22T05:17:42.636Z,1.72
2019-02-22T05:18:18.321Z,1.98
2019-02-22T05:18:54.013Z,2.00
2019-02-22T05:19:29.687Z,3.02
2019-02-22T05:20:05.681Z,2.40
2019-02-22T05:20:41.236Z,2.12
2019-02-22T05:21:16.663Z,2.40
2019-02-22T05:21:52.771Z,1.50
2019-02-22T05:22:28.742Z,1.42
2019-02-22T05:23:07.312Z,1.87
2019-02-22T05:23:41.402Z,1.87
2019-02-22T05:24:17.162Z,2.80
2019-02-22T05:24:52.689Z,3.20
2019-02-22T05:25:28.624Z,4.72
2019-02-22T05:26:04.168Z,3.37
2019-02-22T05:26:39.760Z,3.70
2019-02-22T05:27:15.163Z,3.87
2019-02-22T05:27:50.741Z,2.45
2019-02-22T05:28:26.579Z,2.20
2019-02-22T05:29:02.851Z,1.80
2019-02-22T05:29:39.076Z,2.87
2019-02-22T05:30:14.687Z,1.30
2019-02-22T05:30:50.598Z,1.60
2019-02-22T05:31:26.164Z,2.20
2019-02-22T05:32:01.849Z,2.00
2019-02-22T05:32:37.322Z,1.47
2019-02-22T05:33:13.423Z,1.32
2019-02-22T05:33:49.267Z,1.65
2019-02-22T05:34:24.730Z,2.50
2019-02-22T05:35:00.365Z,2.10
2019-02-22T05:35:35.950Z,2.02
2019-02-22T05:36:11.646Z,1.27
2019-02-22T05:36:47.525Z,2.00
2019-02-22T05:37:23.045Z,1.55
2019-02-22T05:37:58.710Z,2.00
2019-02-22T05:38:34.285Z,1.50
2019-02-22T05:39:18.568Z,1.57
2019-02-22T05:39:47.286Z,1.37
2019-02-22T05:40:23.616Z,1.98
2019-02-22T05:40:59.233Z,1.77
2019-02-22T05:41:35.028Z,1.92
2019-02-22T05:42:22.260Z,1.95
2019-02-22T05:42:48.151Z,1.98
2019-02-22T05:43:23.903Z,2.42
2019-02-22T05:43:59.677Z,2.22
2019-02-22T05:44:35.468Z,1.62
2019-02-22T05:45:11.452Z,2.10
2019-02-22T05:45:47.065Z,1.80
2019-02-22T05:46:22.513Z,2.10
2019-02-22T05:47:00.664Z,2.10
2019-02-22T05:47:35.046Z,2.17
2019-02-22T05:48:10.550Z,2.30
2019-02-22T05:48:45.838Z,2.12
2019-02-22T05:49:22.512Z,1.85
2019-02-22T05:49:58.096Z,1.80
2019-02-22T05:50:33.392Z,1.80
2019-02-22T05:51:08.750Z,1.87
2019-02-22T05:51:44.071Z,2.02
2019-02-22T05:52:19.418Z,2.22
2019-02-22T05:52:54.751Z,2.72
2019-02-22T05:53:30.156Z,1.95
2019-02-22T05:54:05.509Z,2.50
2019-02-22T05:54:40.892Z,2.80
2019-02-22T05:55:16.293Z,2.02
2019-02-22T05:55:51.704Z,2.00
2019-02-22T05:56:27.129Z,1.92
2019-02-22T05:57:02.576Z,2.47
2019-02-22T05:57:38.359Z,1.95
2019-02-22T05:58:14.210Z,2.40
2019-02-22T05:58:49.847Z,2.37
2019-02-22T05:59:25.546Z,2.22
2019-02-22T06:00:01.181Z,2.05
2019-02-22T06:00:36.802Z,2.20
2019-02-22T06:01:12.462Z,2.08
2019-02-22T06:01:48.321Z,1.82
2019-02-22T06:02:24.648Z,2.10
2019-02-22T06:03:00.444Z,2.22
2019-02-22T06:03:36.283Z,1.60
2019-02-22T06:04:12.080Z,2.75
2019-02-22T06:04:47.920Z,2.27
2019-02-22T06:05:23.624Z,2.10
2019-02-22T06:05:58.947Z,2.40
2019-02-22T06:06:34.304Z,3.12
2019-02-22T06:07:09.666Z,2.30
2019-02-22T06:07:45.179Z,1.92
2019-02-22T06:08:20.506Z,2.52
2019-02-22T06:08:55.648Z,1.80
2019-02-22T06:09:30.851Z,2.10
2019-02-22T06:10:06.250Z,1.87
2019-02-22T06:10:41.665Z,2.27
2019-02-22T06:11:17.048Z,1.55
2019-02-22T06:11:52.698Z,1.67
2019-02-22T06:12:34.410Z,1.90
2019-02-22T06:13:05.308Z,1.67
2019-02-22T06:13:40.712Z,2.00
2019-02-22T06:14:16.247Z,1.62
2019-02-22T06:14:51.795Z,2.80
2019-02-22T06:15:27.125Z,2.52
2019-02-22T06:16:02.540Z,2.10
2019-02-22T06:16:45.708Z,1.25
2019-02-22T06:17:21.258Z,1.42
2019-02-22T06:17:56.711Z,1.30
2019-02-22T06:18:32.170Z,1.57
2019-02-22T06:19:08.071Z,2.00
2019-02-22T06:19:43.689Z,2.00
2019-02-22T06:20:18.975Z,1.65
2019-02-22T06:20:54.470Z,2.60
2019-02-22T06:21:29.769Z,3.02
2019-02-22T06:22:05.196Z,2.50
2019-02-22T06:22:40.535Z,1.92
2019-02-22T06:23:16.319Z,2.60
2019-02-22T06:23:52.102Z,2.30
2019-02-22T06:24:27.701Z,2.62
2019-02-22T06:25:03.567Z,1.57
2019-02-22T06:25:39.818Z,2.40
2019-02-22T06:26:15.519Z,1.92
2019-02-22T06:26:51.263Z,2.33
2019-02-22T06:27:26.950Z,2.05
2019-02-22T06:28:02.735Z,1.62
2019-02-22T06:28:38.233Z,1.82
2019-02-22T06:29:13.980Z,1.57
2019-02-22T06:29:49.981Z,2.50
2019-02-22T06:30:25.936Z,1.98
2019-02-22T06:31:01.625Z,2.47
2019-02-22T06:31:36.929Z,2.20
2019-02-22T06:32:12.387Z,2.65
2019-02-22T06:32:47.994Z,1.90
2019-02-22T06:33:23.348Z,1.32
2019-02-22T06:33:59.372Z,1.90
2019-02-22T06:34:34.760Z,2.05
2019-02-22T06:35:10.459Z,1.57
2019-02-22T06:35:45.870Z,1.98
2019-02-22T06:36:21.356Z,2.00
2019-02-22T06:37:01.691Z,1.92
2019-02-22T06:37:33.947Z,1.90
2019-02-22T06:38:09.447Z,2.40
2019-02-22T06:38:46.694Z,2.77
2019-02-22T06:39:22.374Z,1.70
2019-02-22T06:39:57.692Z,1.62
2019-02-22T06:40:33.112Z,2.20
2019-02-22T06:41:08.964Z,1.42
2019-02-22T06:41:44.369Z,1.70
2019-02-22T06:42:19.817Z,1.82
2019-02-22T06:42:55.154Z,1.55
2019-02-22T06:43:30.437Z,1.80
2019-02-22T06:44:06.054Z,1.52
2019-02-22T06:44:41.431Z,2.00
2019-02-22T06:45:17.085Z,2.15
2019-02-22T06:45:52.703Z,2.02
2019-02-22T06:46:28.122Z,1.98
2019-02-22T06:47:03.607Z,2.00
2019-02-22T06:47:38.937Z,2.55
2019-02-22T06:48:14.332Z,1.87
2019-02-22T06:48:49.775Z,1.87
2019-02-22T06:49:25.192Z,2.40
2019-02-22T06:50:00.606Z,1.75
2019-02-22T06:50:36.166Z,2.55
2019-02-22T06:51:11.627Z,2.08
2019-02-22T06:51:46.927Z,2.15
2019-02-22T06:52:22.469Z,1.95
2019-02-22T06:52:58.327Z,2.67
2019-02-22T06:53:34.220Z,2.47
2019-02-22T06:54:09.801Z,2.02
2019-02-22T06:54:45.281Z,2.77
2019-02-22T06:55:21.079Z,3.00
2019-02-22T06:55:56.872Z,3.02
2019-02-22T06:56:32.470Z,2.55
2019-02-22T06:57:08.330Z,2.30
2019-02-22T06:57:44.408Z,2.67
2019-02-22T06:58:20.286Z,2.75
2019-02-22T06:58:55.741Z,2.45
2019-02-22T06:59:31.702Z,2.35
2019-02-22T07:00:08.380Z,2.45
2019-02-22T07:00:44.131Z,2.67
2019-02-22T07:01:19.644Z,2.33
2019-02-22T07:01:55.025Z,2.27
2019-02-22T07:02:30.424Z,3.05
2019-02-22T07:03:05.806Z,2.85
2019-02-22T07:03:41.163Z,3.27
2019-02-22T07:04:16.776Z,2.77
2019-02-22T07:04:52.046Z,3.58
2019-02-22T07:05:27.427Z,3.17
2019-02-22T07:06:05.498Z,2.17
2019-02-22T07:06:39.904Z,2.95
2019-02-22T07:07:15.545Z,3.17
2019-02-22T07:07:50.804Z,3.50
2019-02-22T07:08:26.750Z,3.25
2019-02-22T07:09:02.050Z,3.62
2019-02-22T07:09:37.644Z,3.20
2019-02-22T07:10:13.126Z,3.40
2019-02-22T07:11:10.588Z,3.60
2019-02-22T07:12:05.078Z,3.33
2019-02-22T07:12:57.022Z,2.60
2019-02-22T07:13:31.072Z,3.30
2019-02-22T07:14:06.414Z,3.45
2019-02-22T07:14:41.778Z,3.02
2019-02-22T07:15:17.476Z,3.42
2019-02-22T07:15:52.813Z,3.55
2019-02-22T07:16:28.098Z,3.45
2019-02-22T07:17:03.637Z,3.60
2019-02-22T07:17:39.094Z,3.35
2019-02-22T07:18:14.654Z,3.90
2019-02-22T07:18:50.246Z,2.65
2019-02-22T07:19:25.673Z,2.70
2019-02-22T07:20:01.066Z,3.40
2019-02-22T07:20:36.568Z,3.33
2019-02-22T07:21:11.865Z,3.30
2019-02-22T07:21:52.814Z,3.15
2019-02-22T07:22:24.611Z,2.98
2019-02-22T07:23:00.130Z,2.67
2019-02-22T07:23:36.059Z,3.77
2019-02-22T07:24:11.410Z,3.00
2019-02-22T07:24:46.691Z,2.87
2019-02-22T07:25:22.245Z,3.02
2019-02-22T07:25:57.751Z,3.30
2019-02-22T07:26:33.090Z,2.85
2019-02-22T07:27:08.472Z,3.15
2019-02-22T07:27:44.070Z,3.33
2019-02-22T07:28:19.446Z,3.25
2019-02-22T07:28:54.745Z,1.80
2019-02-22T07:29:30.226Z,2.92
2019-02-22T07:30:06.210Z,3.52
2019-02-22T07:30:41.755Z,2.40
2019-02-22T07:31:17.314Z,2.42
2019-02-22T07:31:52.614Z,2.83
2019-02-22T07:32:27.965Z,2.67
2019-02-22T07:33:03.538Z,2.50
2019-02-22T07:33:39.033Z,2.77
2019-02-22T07:34:14.426Z,2.40
2019-02-22T07:34:50.465Z,2.90
2019-02-22T07:35:26.063Z,2.62
2019-02-22T07:36:01.666Z,2.40
2019-02-22T07:36:37.119Z,2.95
2019-02-22T07:37:12.725Z,3.10
2019-02-22T07:37:48.173Z,2.60
2019-02-22T07:38:23.588Z,2.58
2019-02-22T07:38:59.182Z,2.77
2019-02-22T07:39:34.545Z,2.87
2019-02-22T07:40:10.205Z,2.75
2019-02-22T07:40:45.605Z,2.10
2019-02-22T07:41:21.130Z,3.12
2019-02-22T07:41:56.470Z,1.92
2019-02-22T07:42:31.876Z,3.08
2019-02-22T07:43:08.290Z,2.22
2019-02-22T07:43:43.893Z,2.55
2019-02-22T07:44:19.447Z,3.10
2019-02-22T07:44:55.508Z,3.02
2019-02-22T07:45:31.090Z,2.77
2019-02-22T07:46:06.527Z,3.02
2019-02-22T07:46:41.946Z,2.80
2019-02-22T07:47:17.443Z,2.98
2019-02-22T07:47:52.700Z,1.67
2019-02-22T07:48:28.124Z,2.37
2019-02-22T07:49:03.466Z,2.47
2019-02-22T07:49:38.969Z,1.70
2019-02-22T07:50:14.186Z,2.60